createdAt,value
2023-04-30T00:01:51.351Z,75.16
2023-04-30T00:04:19.388Z,74.96
2023-04-30T00:06:47.396Z,73.77
2023-04-30T00:09:16.789Z,73.69
2023-04-30T00:11:44.715Z,73.76
2023-04-30T00:14:12.645Z,73.37
2023-04-30T00:16:40.591Z,72.60
2023-04-30T00:19:08.531Z,73.12
2023-04-30T00:21:36.461Z,73.30
2023-04-30T00:24:04.517Z,74.14
2023-04-30T00:26:33.827Z,74.68
2023-04-30T00:29:01.732Z,75.19
2023-04-30T00:31:29.742Z,75.99
2023-04-30T00:33:57.782Z,76.56
2023-04-30T00:36:25.778Z,76.59
2023-04-30T00:38:53.769Z,76.10
2023-04-30T00:41:22.490Z,75.40
2023-04-30T00:43:51.759Z,74.67
2023-04-30T00:46:19.740Z,73.67
2023-04-30T00:48:47.806Z,72.94
2023-04-30T00:51:15.803Z,72.52
2023-04-30T00:53:44.553Z,73.63
2023-04-30T00:56:12.456Z,74.28
2023-04-30T00:58:41.120Z,75.13
2023-04-30T01:01:10.521Z,74.65
2023-04-30T01:03:38.748Z,75.39
2023-04-30T01:06:07.024Z,75.51
2023-04-30T01:08:35.178Z,75.49
2023-04-30T01:11:17.464Z,75.24
2023-04-30T01:13:53.595Z,75.17
2023-04-30T01:16:26.150Z,74.50
2023-04-30T01:18:58.435Z,74.44
2023-04-30T01:21:26.642Z,73.85
2023-04-30T01:24:16.526Z,72.77
2023-04-30T01:26:55.314Z,73.03
2023-04-30T01:29:26.165Z,73.06
2023-04-30T01:31:54.039Z,73.42
2023-04-30T01:34:21.975Z,73.26
2023-04-30T01:37:01.035Z,73.69
2023-04-30T01:39:39.495Z,73.65
2023-04-30T01:42:10.198Z,74.31
2023-04-30T01:44:55.205Z,74.14
2023-04-30T01:47:31.903Z,74.01
2023-04-30T01:50:12.321Z,73.07
2023-04-30T01:52:42.020Z,73.12
2023-04-30T01:55:13.099Z,73.76
2023-04-30T01:57:44.224Z,74.99
2023-04-30T02:00:15.142Z,74.01
2023-04-30T02:02:43.119Z,72.90
2023-04-30T02:05:11.270Z,73.25
2023-04-30T02:07:41.788Z,74.08
2023-04-30T02:10:11.958Z,73.39
2023-04-30T02:12:39.925Z,75.13
2023-04-30T02:15:09.340Z,75.01
2023-04-30T02:17:38.710Z,74.96
2023-04-30T02:20:08.505Z,74.42
2023-04-30T02:22:36.567Z,73.19
2023-04-30T02:25:05.047Z,72.70
2023-04-30T02:27:33.927Z,72.15
2023-04-30T02:30:02.633Z,71.75
2023-04-30T02:32:30.723Z,71.51
2023-04-30T02:35:00.199Z,71.38
2023-04-30T02:37:28.105Z,71.40
2023-04-30T02:39:56.233Z,71.69
2023-04-30T02:42:24.384Z,73.11
2023-04-30T02:44:52.287Z,72.96
2023-04-30T02:47:20.184Z,72.66
2023-04-30T02:49:48.200Z,74.52
2023-04-30T02:52:17.491Z,75.98
2023-04-30T02:54:45.404Z,74.26
2023-04-30T02:57:13.295Z,75.24
2023-04-30T02:59:45.923Z,75.04
2023-04-30T03:02:13.968Z,74.22
2023-04-30T03:04:41.907Z,73.30
2023-04-30T03:07:09.851Z,72.63
2023-04-30T03:09:39.227Z,72.38
2023-04-30T03:12:07.105Z,72.35
2023-04-30T03:14:35.036Z,72.63
2023-04-30T03:17:02.927Z,73.45
2023-04-30T03:19:30.803Z,73.67
2023-04-30T03:21:58.739Z,72.84
2023-04-30T03:24:26.636Z,73.21
2023-04-30T03:26:56.168Z,73.44
2023-04-30T03:29:24.424Z,72.75
2023-04-30T03:31:52.374Z,72.52
2023-04-30T03:34:20.312Z,72.34
2023-04-30T03:36:48.271Z,72.11
2023-04-30T03:39:16.407Z,72.17
2023-04-30T03:41:44.442Z,71.79
2023-04-30T03:44:16.035Z,71.48
2023-04-30T03:46:44.317Z,70.73
2023-04-30T03:49:12.677Z,70.18
2023-04-30T03:51:42.059Z,70.28
2023-04-30T03:54:10.136Z,70.09
2023-04-30T03:56:38.736Z,70.59
2023-04-30T03:59:06.779Z,71.40
2023-04-30T04:01:36.192Z,71.40
2023-04-30T04:04:05.203Z,71.67
2023-04-30T04:06:33.197Z,71.17
2023-04-30T04:09:01.128Z,72.07
2023-04-30T04:11:29.018Z,72.03
2023-04-30T04:13:56.944Z,72.85
2023-04-30T04:16:24.961Z,73.47
2023-04-30T04:18:54.267Z,72.49
2023-04-30T04:21:22.485Z,71.78
2023-04-30T04:23:50.474Z,72.85
2023-04-30T04:26:19.665Z,73.31
2023-04-30T04:28:47.754Z,72.28
2023-04-30T04:31:15.985Z,71.98
2023-04-30T04:33:43.893Z,74.06
2023-04-30T04:36:13.176Z,73.48
2023-04-30T04:38:42.021Z,73.43
2023-04-30T04:41:09.888Z,72.87
2023-04-30T04:43:38.505Z,72.53
2023-04-30T04:46:06.620Z,72.30
2023-04-30T04:48:34.551Z,71.71
2023-04-30T04:51:02.502Z,73.61
2023-04-30T04:53:34.207Z,72.57
2023-04-30T04:56:02.937Z,71.55
2023-04-30T04:58:30.985Z,71.31
2023-04-30T05:01:00.055Z,71.70
2023-04-30T05:03:28.243Z,73.14
2023-04-30T05:05:56.631Z,74.56
2023-04-30T05:08:24.856Z,73.98
2023-04-30T05:10:54.161Z,72.76
2023-04-30T05:13:22.082Z,72.88
2023-04-30T05:15:52.583Z,72.07
2023-04-30T05:18:20.825Z,71.88
2023-04-30T05:20:48.806Z,72.43
2023-04-30T05:23:16.747Z,74.51
2023-04-30T05:25:45.557Z,73.81
2023-04-30T05:28:14.818Z,74.66
2023-04-30T05:30:42.759Z,75.65
2023-04-30T05:33:11.785Z,74.48
2023-04-30T05:35:39.810Z,74.82
2023-04-30T05:38:07.729Z,75.70
2023-04-30T05:40:35.660Z,76.01
2023-04-30T05:43:03.613Z,75.50
2023-04-30T05:45:32.890Z,75.00
2023-04-30T05:48:02.028Z,74.54
2023-04-30T05:50:30.176Z,74.99
2023-04-30T05:52:58.072Z,74.94
2023-04-30T05:55:26.042Z,74.65
2023-04-30T05:57:53.961Z,74.68
2023-04-30T06:00:21.874Z,73.53
2023-04-30T06:02:51.315Z,73.90
2023-04-30T06:05:19.230Z,74.58
2023-04-30T06:07:47.107Z,73.50
2023-04-30T06:10:15.031Z,72.93
2023-04-30T06:12:42.958Z,73.44
2023-04-30T06:15:11.471Z,73.51
2023-04-30T06:17:39.874Z,72.03
2023-04-30T06:20:10.363Z,72.27
2023-04-30T06:22:38.294Z,70.89
2023-04-30T06:25:07.311Z,70.19
2023-04-30T06:27:35.242Z,68.82
2023-04-30T06:30:03.243Z,68.26
2023-04-30T06:32:31.363Z,65.74
2023-04-30T06:35:00.296Z,65.56
2023-04-30T06:37:30.289Z,66.79
2023-04-30T06:39:58.906Z,66.48
2023-04-30T06:42:26.825Z,65.47
2023-04-30T06:44:55.472Z,65.65
2023-04-30T06:47:23.412Z,65.78
2023-04-30T06:49:51.341Z,63.60
2023-04-30T06:52:19.225Z,63.97
2023-04-30T06:54:48.511Z,63.78
2023-04-30T06:57:16.718Z,62.90
2023-04-30T06:59:44.766Z,64.75
2023-04-30T07:02:12.673Z,63.95
2023-04-30T07:04:40.663Z,58.49
2023-04-30T07:07:08.994Z,60.68
2023-04-30T07:09:37.646Z,60.82
2023-04-30T07:12:07.032Z,64.29
2023-04-30T07:14:34.930Z,65.40
2023-04-30T07:17:02.834Z,63.75
2023-04-30T07:19:30.765Z,64.38
2023-04-30T07:21:58.630Z,64.50
2023-04-30T07:24:26.517Z,64.05
2023-04-30T07:26:54.459Z,62.28
2023-04-30T07:29:23.868Z,63.72
2023-04-30T07:31:51.772Z,60.99
2023-04-30T07:34:19.755Z,63.57
2023-04-30T07:36:49.143Z,63.14
2023-04-30T07:39:17.067Z,58.00
2023-04-30T07:41:45.090Z,58.05
2023-04-30T07:44:13.074Z,58.72
2023-04-30T07:46:42.643Z,61.35
2023-04-30T07:49:10.760Z,59.20
2023-04-30T07:51:38.684Z,59.80
2023-04-30T07:54:06.688Z,61.86
2023-04-30T07:56:34.802Z,56.67
2023-04-30T07:59:02.849Z,60.89
2023-04-30T08:01:30.735Z,60.88
2023-04-30T08:04:00.212Z,58.42
2023-04-30T08:06:28.997Z,53.92
2023-04-30T08:08:56.992Z,58.93
2023-04-30T08:11:24.920Z,57.08
2023-04-30T08:13:52.852Z,59.00
2023-04-30T08:16:20.776Z,57.73
2023-04-30T08:18:49.688Z,54.33
2023-04-30T08:21:19.155Z,58.51
2023-04-30T08:23:47.165Z,57.14
2023-04-30T08:26:15.119Z,57.37
2023-04-30T08:28:43.035Z,57.31
2023-04-30T08:31:11.505Z,53.38
2023-04-30T08:33:40.345Z,57.47
2023-04-30T08:36:08.545Z,56.90
2023-04-30T08:38:38.006Z,55.77
2023-04-30T08:41:11.402Z,56.13
2023-04-30T08:43:39.776Z,56.31
2023-04-30T08:46:08.072Z,55.86
2023-04-30T08:48:36.321Z,55.45
2023-04-30T08:51:05.845Z,55.13
2023-04-30T08:53:38.596Z,54.10
2023-04-30T08:56:07.178Z,51.96
2023-04-30T08:58:35.058Z,52.28
2023-04-30T09:01:03.782Z,48.95
2023-04-30T09:03:32.386Z,55.80
2023-04-30T09:06:00.461Z,56.30
2023-04-30T09:08:46.991Z,56.26
2023-04-30T09:11:25.157Z,51.96
2023-04-30T09:13:54.107Z,54.58
2023-04-30T09:16:22.871Z,53.90
2023-04-30T09:18:51.373Z,53.41
2023-04-30T09:21:31.004Z,52.82
2023-04-30T09:24:01.709Z,53.25
2023-04-30T09:26:33.895Z,45.86
2023-04-30T09:29:08.219Z,44.40
2023-04-30T09:31:36.778Z,47.86
2023-04-30T09:34:06.116Z,54.45
2023-04-30T09:36:34.745Z,52.73
2023-04-30T09:39:15.543Z,51.90
2023-04-30T09:41:44.667Z,47.38
2023-04-30T09:44:28.368Z,52.63
2023-04-30T09:46:57.345Z,49.46
2023-04-30T09:49:26.121Z,53.55
2023-04-30T09:51:57.719Z,48.59
2023-04-30T09:54:29.608Z,46.49
2023-04-30T09:56:59.167Z,53.00
2023-04-30T09:59:31.685Z,51.14
2023-04-30T10:02:01.287Z,53.39
2023-04-30T10:04:30.593Z,45.54
2023-04-30T10:06:59.247Z,53.37
2023-04-30T10:09:31.526Z,51.02
2023-04-30T10:11:59.525Z,42.26
2023-04-30T10:14:34.294Z,53.84
2023-04-30T10:17:07.558Z,43.83
2023-04-30T10:19:36.524Z,51.97
2023-04-30T10:22:05.252Z,43.63
2023-04-30T10:24:35.070Z,51.00
2023-04-30T10:27:03.629Z,48.26
2023-04-30T10:29:31.597Z,49.83
2023-04-30T10:31:59.999Z,47.98
2023-04-30T10:34:37.234Z,48.64
2023-04-30T10:37:07.652Z,42.01
2023-04-30T10:39:38.624Z,51.26
2023-04-30T10:42:08.028Z,49.15
2023-04-30T10:44:38.223Z,49.11
2023-04-30T10:47:08.886Z,47.88
2023-04-30T10:49:37.094Z,50.56
2023-04-30T10:52:23.269Z,48.66
2023-04-30T10:54:52.930Z,47.80
2023-04-30T10:57:22.949Z,46.71
2023-04-30T10:59:54.311Z,46.69
2023-04-30T11:02:22.820Z,46.00
2023-04-30T11:05:09.922Z,45.46
2023-04-30T11:07:38.023Z,45.41
2023-04-30T11:10:09.659Z,45.38
2023-04-30T11:12:42.372Z,47.39
2023-04-30T11:15:15.840Z,43.98
2023-04-30T11:17:45.660Z,41.17
2023-04-30T11:20:14.119Z,50.05
2023-04-30T11:22:42.256Z,41.37
2023-04-30T11:25:13.165Z,47.67
2023-04-30T11:27:44.945Z,47.07
2023-04-30T11:30:15.441Z,49.68
2023-04-30T11:32:46.306Z,41.74
2023-04-30T11:35:15.410Z,43.33
2023-04-30T11:37:44.811Z,49.93
2023-04-30T11:40:16.133Z,49.38
2023-04-30T11:42:46.697Z,46.86
2023-04-30T11:45:17.711Z,45.48
2023-04-30T11:47:47.035Z,45.63
2023-04-30T11:50:16.257Z,37.76
2023-04-30T11:52:44.797Z,46.81
2023-04-30T11:55:19.186Z,45.46
2023-04-30T11:57:48.892Z,44.51
2023-04-30T12:00:19.233Z,45.93
2023-04-30T12:02:49.428Z,44.29
2023-04-30T12:05:18.237Z,42.89
2023-04-30T12:07:47.651Z,36.63
2023-04-30T12:10:17.423Z,46.75
2023-04-30T12:12:46.001Z,44.80
2023-04-30T12:15:18.108Z,45.13
2023-04-30T12:17:46.679Z,42.79
2023-04-30T12:20:16.306Z,42.64
2023-04-30T12:22:45.217Z,43.03
2023-04-30T12:25:15.056Z,38.94
2023-04-30T12:27:47.468Z,44.65
2023-04-30T12:30:15.677Z,39.91
2023-04-30T12:32:44.962Z,41.85
2023-04-30T12:35:16.194Z,46.27
2023-04-30T12:37:45.559Z,40.97
2023-04-30T12:40:14.506Z,44.48
2023-04-30T12:42:44.826Z,41.52
2023-04-30T12:45:13.219Z,39.11
2023-04-30T12:47:44.255Z,42.26
2023-04-30T12:50:13.169Z,45.64
2023-04-30T12:52:41.762Z,46.94
2023-04-30T12:55:19.605Z,44.24
2023-04-30T12:58:08.672Z,42.80
2023-04-30T13:00:47.636Z,44.46
2023-04-30T13:03:16.738Z,43.31
2023-04-30T13:05:48.408Z,42.89
2023-04-30T13:08:16.502Z,36.30
2023-04-30T13:10:44.466Z,36.87
2023-04-30T13:13:14.172Z,46.37
2023-04-30T13:15:42.693Z,40.25
2023-04-30T13:18:10.964Z,40.68
2023-04-30T13:20:39.443Z,41.25
2023-04-30T13:23:07.460Z,41.18
2023-04-30T13:25:36.351Z,41.60
2023-04-30T13:28:04.489Z,40.39
2023-04-30T13:30:34.443Z,36.04
2023-04-30T13:33:02.375Z,40.17
2023-04-30T13:35:30.580Z,38.67
2023-04-30T13:38:00.618Z,39.24
2023-04-30T13:40:28.827Z,40.15
2023-04-30T13:42:56.719Z,34.48
2023-04-30T13:45:24.585Z,41.07
2023-04-30T13:47:53.952Z,38.73
2023-04-30T13:50:21.882Z,38.09
2023-04-30T13:52:49.788Z,39.48
2023-04-30T13:55:17.699Z,38.12
2023-04-30T13:57:45.604Z,39.83
2023-04-30T14:00:14.849Z,40.14
2023-04-30T14:02:42.887Z,33.17
2023-04-30T14:05:12.424Z,35.36
2023-04-30T14:07:40.366Z,36.70
2023-04-30T14:10:09.484Z,41.46
2023-04-30T14:12:38.339Z,40.85
2023-04-30T14:15:07.228Z,39.93
2023-04-30T14:17:35.763Z,34.59
2023-04-30T14:20:04.009Z,38.84
2023-04-30T14:22:34.692Z,39.17
2023-04-30T14:25:02.700Z,35.44
2023-04-30T14:27:30.691Z,38.67
2023-04-30T14:29:58.637Z,39.52
2023-04-30T14:32:27.274Z,37.91
2023-04-30T14:34:55.536Z,38.45
2023-04-30T14:37:23.938Z,34.12
2023-04-30T14:39:53.766Z,40.34
2023-04-30T14:42:21.988Z,38.83
2023-04-30T14:44:49.938Z,38.32
2023-04-30T14:47:18.074Z,37.34
2023-04-30T14:49:46.069Z,36.67
2023-04-30T14:52:14.614Z,37.43
2023-04-30T14:54:43.487Z,36.06
2023-04-30T14:57:12.827Z,37.59
2023-04-30T14:59:41.933Z,37.25
2023-04-30T15:02:11.410Z,30.47
2023-04-30T15:04:39.524Z,36.99
2023-04-30T15:07:07.478Z,37.07
2023-04-30T15:09:35.603Z,34.95
2023-04-30T15:12:03.520Z,33.45
2023-04-30T15:14:32.873Z,33.32
2023-04-30T15:17:01.126Z,31.51
2023-04-30T15:19:29.051Z,34.14
2023-04-30T15:21:56.983Z,32.05
2023-04-30T15:24:25.068Z,32.51
2023-04-30T15:26:55.439Z,31.76
2023-04-30T15:29:23.605Z,32.87
2023-04-30T15:31:53.946Z,33.37
2023-04-30T15:34:23.026Z,32.61
2023-04-30T15:36:51.210Z,32.38
2023-04-30T15:39:19.231Z,33.12
2023-04-30T15:41:47.220Z,32.58
2023-04-30T15:44:15.214Z,31.38
2023-04-30T15:46:43.333Z,31.74
2023-04-30T15:49:12.795Z,32.81
2023-04-30T15:51:40.792Z,30.26
2023-04-30T15:54:11.078Z,32.17
2023-04-30T15:56:39.695Z,32.82
2023-04-30T15:59:07.822Z,30.85
2023-04-30T16:01:35.821Z,32.67
2023-04-30T16:04:04.146Z,31.56
2023-04-30T16:06:33.755Z,31.03
2023-04-30T16:09:06.615Z,31.65
2023-04-30T16:11:34.664Z,31.69
2023-04-30T16:14:02.630Z,34.22
2023-04-30T16:16:30.610Z,33.50
2023-04-30T16:18:58.667Z,31.67
2023-04-30T16:21:27.318Z,31.64
2023-04-30T16:23:56.651Z,31.72
2023-04-30T16:26:24.610Z,32.87
2023-04-30T16:28:52.530Z,32.49
2023-04-30T16:31:23.579Z,33.35
2023-04-30T16:33:51.552Z,30.92
2023-04-30T16:36:19.494Z,31.48
2023-04-30T16:38:47.546Z,33.21
2023-04-30T16:41:18.198Z,32.27
2023-04-30T16:43:46.215Z,33.39
2023-04-30T16:46:14.288Z,33.35
2023-04-30T16:48:42.304Z,32.94
2023-04-30T16:51:10.264Z,30.79
2023-04-30T16:53:38.239Z,32.27
2023-04-30T16:56:06.691Z,32.18
2023-04-30T16:58:36.043Z,33.65
2023-04-30T17:01:04.107Z,33.41
2023-04-30T17:03:34.763Z,34.44
2023-04-30T17:06:03.174Z,31.72
2023-04-30T17:08:31.199Z,34.17
2023-04-30T17:10:59.194Z,34.30
2023-04-30T17:13:27.206Z,33.30
2023-04-30T17:16:01.768Z,32.91
2023-04-30T17:18:30.288Z,33.69
2023-04-30T17:20:58.268Z,37.01
2023-04-30T17:23:26.678Z,36.79
2023-04-30T17:25:55.741Z,34.79
2023-04-30T17:28:23.969Z,36.58
2023-04-30T17:30:52.609Z,36.11
2023-04-30T17:33:23.371Z,34.25
2023-04-30T17:35:51.572Z,35.63
2023-04-30T17:38:19.675Z,34.96
2023-04-30T17:40:47.662Z,39.57
2023-04-30T17:43:15.652Z,40.78
2023-04-30T17:45:47.276Z,41.53
2023-04-30T17:48:15.259Z,41.31
2023-04-30T17:50:44.911Z,42.48
2023-04-30T17:53:12.854Z,42.60
2023-04-30T17:55:40.837Z,42.14
2023-04-30T17:58:11.581Z,43.07
2023-04-30T18:00:40.454Z,43.28
2023-04-30T18:03:08.782Z,43.95
2023-04-30T18:05:36.778Z,43.95
2023-04-30T18:08:06.725Z,44.67
2023-04-30T18:10:34.933Z,44.91
2023-04-30T18:13:02.900Z,45.72
2023-04-30T18:15:30.876Z,46.39
2023-04-30T18:17:59.441Z,46.28
2023-04-30T18:20:28.065Z,46.12
2023-04-30T18:22:56.687Z,46.37
2023-04-30T18:25:27.737Z,46.50
2023-04-30T18:27:55.767Z,46.47
2023-04-30T18:30:23.783Z,46.59
2023-04-30T18:32:51.762Z,46.51
2023-04-30T18:35:19.923Z,46.80
2023-04-30T18:37:50.720Z,47.02
2023-04-30T18:40:19.204Z,47.08
2023-04-30T18:42:48.697Z,47.53
2023-04-30T18:45:18.186Z,47.13
2023-04-30T18:47:46.244Z,47.27
2023-04-30T18:50:17.483Z,47.58
2023-04-30T18:52:45.787Z,47.79
2023-04-30T18:55:14.438Z,48.05
2023-04-30T18:57:43.377Z,48.46
2023-04-30T19:00:14.667Z,48.10
2023-04-30T19:02:43.030Z,47.81
2023-04-30T19:05:11.083Z,47.76
2023-04-30T19:07:39.812Z,47.99
2023-04-30T19:10:08.475Z,48.06
2023-04-30T19:12:36.966Z,48.58
2023-04-30T19:15:05.817Z,49.07
2023-04-30T19:17:35.307Z,49.13
2023-04-30T19:20:03.963Z,49.66
2023-04-30T19:22:31.932Z,49.79
2023-04-30T19:24:59.900Z,49.79
2023-04-30T19:27:27.811Z,49.72
2023-04-30T19:29:58.953Z,50.04
2023-04-30T19:32:27.351Z,49.91
2023-04-30T19:34:56.766Z,49.88
2023-04-30T19:37:25.151Z,50.21
2023-04-30T19:39:53.226Z,50.35
2023-04-30T19:42:21.320Z,50.20
2023-04-30T19:44:49.254Z,50.25
2023-04-30T19:47:17.579Z,50.69
2023-04-30T19:49:47.432Z,50.74
2023-04-30T19:52:16.803Z,51.01
2023-04-30T19:54:48.630Z,50.83
2023-04-30T19:57:17.012Z,50.85
2023-04-30T19:59:47.191Z,51.00
2023-04-30T20:02:15.248Z,51.31
2023-04-30T20:04:43.449Z,51.31
2023-04-30T20:07:11.430Z,51.01
2023-04-30T20:09:40.909Z,50.98
2023-04-30T20:12:09.702Z,51.64
2023-04-30T20:14:37.621Z,51.69
2023-04-30T20:17:05.507Z,52.18
2023-04-30T20:19:33.800Z,52.24
2023-04-30T20:22:02.223Z,52.39
2023-04-30T20:24:30.110Z,52.73
2023-04-30T20:26:59.937Z,53.27
2023-04-30T20:29:29.404Z,53.54
2023-04-30T20:31:58.414Z,53.60
2023-04-30T20:34:26.457Z,52.96
2023-04-30T20:36:55.129Z,52.86
2023-04-30T20:39:23.093Z,53.76
2023-04-30T20:41:51.040Z,53.53
2023-04-30T20:44:20.355Z,53.19
2023-04-30T20:46:48.322Z,54.04
2023-04-30T20:49:17.093Z,54.57
2023-04-30T20:51:45.069Z,54.23
2023-04-30T20:54:13.108Z,54.59
2023-04-30T20:56:42.527Z,54.46
2023-04-30T20:59:10.432Z,54.60
2023-04-30T21:01:39.858Z,54.32
2023-04-30T21:04:08.058Z,54.66
2023-04-30T21:06:36.127Z,54.82
2023-04-30T21:09:04.108Z,54.40
2023-04-30T21:11:33.357Z,54.50
2023-04-30T21:14:01.509Z,54.94
2023-04-30T21:16:31.258Z,54.89
2023-04-30T21:19:00.751Z,54.68
2023-04-30T21:21:28.660Z,54.79
2023-04-30T21:23:56.659Z,55.16
2023-04-30T21:26:24.549Z,55.14
2023-04-30T21:28:52.630Z,55.46
2023-04-30T21:31:20.681Z,55.23
2023-04-30T21:33:48.629Z,55.13
2023-04-30T21:36:18.183Z,55.53
2023-04-30T21:38:46.318Z,55.79
2023-04-30T21:41:15.394Z,55.98
2023-04-30T21:43:43.419Z,56.28
2023-04-30T21:46:13.431Z,56.28
2023-04-30T21:48:41.667Z,56.76
2023-04-30T21:51:14.709Z,56.92
2023-04-30T21:53:44.277Z,57.46
2023-04-30T21:56:12.774Z,57.67
2023-04-30T21:58:40.801Z,57.68
2023-04-30T22:01:08.866Z,57.74
2023-04-30T22:03:36.961Z,57.78
2023-04-30T22:06:05.285Z,57.90
2023-04-30T22:08:33.184Z,58.06
2023-04-30T22:11:04.738Z,57.95
2023-04-30T22:13:32.747Z,58.01
2023-04-30T22:16:01.215Z,57.88
2023-04-30T22:18:29.384Z,58.12
2023-04-30T22:20:57.455Z,58.12
2023-04-30T22:23:25.367Z,58.32
2023-04-30T22:25:53.405Z,58.83
2023-04-30T22:28:23.533Z,59.11
2023-04-30T22:30:51.449Z,59.27
2023-04-30T22:33:20.946Z,59.42
2023-04-30T22:35:50.174Z,59.40
2023-04-30T22:38:18.075Z,59.75
2023-04-30T22:40:45.980Z,60.07
2023-04-30T22:43:14.727Z,59.86
2023-04-30T22:45:44.081Z,59.94
2023-04-30T22:48:12.150Z,59.87
2023-04-30T22:50:40.278Z,59.58
2023-04-30T22:53:08.324Z,59.99
2023-04-30T22:55:36.243Z,60.41
2023-04-30T22:58:04.149Z,60.18
2023-04-30T23:00:32.036Z,60.15
2023-04-30T23:03:01.466Z,60.68
2023-04-30T23:05:29.427Z,61.01
2023-04-30T23:07:57.357Z,61.09
2023-04-30T23:10:25.244Z,61.13
2023-04-30T23:12:55.481Z,61.80
2023-04-30T23:15:23.583Z,61.72
2023-04-30T23:17:51.611Z,61.41
2023-04-30T23:20:20.968Z,61.28
2023-04-30T23:22:48.890Z,61.31
2023-04-30T23:25:16.900Z,61.38
2023-04-30T23:27:45.244Z,61.47
2023-04-30T23:30:13.555Z,61.86
2023-04-30T23:32:41.653Z,61.51
2023-04-30T23:35:10.259Z,61.48
2023-04-30T23:37:39.554Z,61.51
2023-04-30T23:40:09.772Z,63.06
2023-04-30T23:42:37.763Z,63.33
2023-04-30T23:45:06.851Z,63.45
2023-04-30T23:47:36.302Z,63.27
2023-04-30T23:50:04.583Z,62.96
2023-04-30T23:52:33.209Z,62.77
2023-04-30T23:55:02.922Z,62.61
2023-04-30T23:57:30.823Z,62.59
2023-04-30T23:59:59.255Z,62.81
